Time;durP1;ratioP1;P1;durP2;ratioP2;P2;SDS_P1;SDS_P2;PMS_P1;PMS_P2;Temp;Humidity;BMP_temperature;BMP_pressure;BME280_temperature;BME280_humidity;BME280_pressure;Samples;Min_cycle;Max_cycle;Signal;HPM_P1;HPM_P2
2022/04/06 00:00:00;;;;;;;2.97;2.70;;;;;;;11.06;74.35;98056.84;5091260;28;40045;-79
2022/04/06 00:02:28;;;;;;;3.30;3.00;;;;;;;11.05;74.17;98042.75;5090786;28;40298;-79
2022/04/06 00:04:56;;;;;;;3.73;3.13;;;;;;;11.02;74.04;98029.72;5090526;28;43803;-79
2022/04/06 00:07:25;;;;;;;3.60;2.70;;;;;;;11.10;74.56;98040.59;5073577;28;41206;-80
2022/04/06 00:09:52;;;;;;;3.30;3.00;;;;;;;11.10;74.38;98040.59;5090587;28;39262;-77
2022/04/06 00:12:20;;;;;;;3.00;2.70;;;;;;;11.09;74.57;98038.91;5089879;28;42529;-78
2022/04/06 00:14:47;;;;;;;2.83;2.40;;;;;;;11.10;74.52;98037.94;5088608;28;42516;-79
2022/04/06 00:17:15;;;;;;;3.30;2.70;;;;;;;11.12;74.39;98038.69;5107247;28;42264;-78
2022/04/06 00:19:44;;;;;;;3.20;2.80;;;;;;;11.14;74.21;98036.72;5065763;28;40317;-78
2022/04/06 00:22:12;;;;;;;4.30;3.27;;;;;;;11.14;74.61;98044.69;5070622;28;41932;-79
2022/04/06 00:24:39;;;;;;;3.20;2.80;;;;;;;11.15;74.60;98037.56;5070598;28;43417;-80
2022/04/06 00:27:07;;;;;;;4.37;2.93;;;;;;;11.12;74.57;98024.59;5070413;28;42197;-79
2022/04/06 00:29:34;;;;;;;3.10;2.77;;;;;;;11.16;74.32;98018.91;5087147;28;39819;-80
2022/04/06 00:32:02;;;;;;;2.80;2.43;;;;;;;11.15;74.48;98019.03;5090482;28;41800;-79
2022/04/06 00:37:15;;;;;;;3.60;3.30;;;;;;;11.11;74.72;98018.44;5069800;28;42722;-78
2022/04/06 00:39:43;;;;;;;3.83;3.13;;;;;;;11.13;74.98;98019.13;5070300;28;40234;-79
2022/04/06 00:42:11;;;;;;;3.13;2.80;;;;;;;11.13;74.80;98013.84;5067896;28;42176;-78
2022/04/06 00:44:39;;;;;;;2.63;2.43;;;;;;;11.14;74.64;98022.63;5091656;28;42935;-79
2022/04/06 00:47:08;;;;;;;3.30;2.60;;;;;;;11.09;74.94;98007.13;5073178;28;41697;-79
2022/04/06 00:49:35;;;;;;;4.37;2.87;;;;;;;11.13;74.82;98010.34;5073812;28;40225;-79
2022/04/06 00:52:06;;;;;;;3.27;2.33;;;;;;;11.14;74.76;98010.22;5072953;28;42026;-78
2022/04/06 00:54:36;;;;;;;3.40;2.90;;;;;;;11.02;74.93;97984.69;5088437;28;43637;-79
2022/04/06 00:57:04;;;;;;;3.60;3.30;;;;;;;11.11;75.38;98002.53;5073304;28;41421;-77
2022/04/06 00:59:32;;;;;;;3.37;3.07;;;;;;;11.02;75.15;97990.00;5125042;27;40899;-79
2022/04/06 01:02:00;;;;;;;4.13;3.17;;;;;;;11.10;75.03;97994.72;5081946;28;40976;-78
2022/04/06 01:04:28;;;;;;;3.60;2.63;;;;;;;11.15;75.01;97998.66;5052998;28;42001;-78
2022/04/06 01:06:56;;;;;;;3.90;2.90;;;;;;;11.03;75.23;97986.38;5053198;28;43712;-79
2022/04/06 01:09:24;;;;;;;4.13;2.70;;;;;;;11.12;75.04;97996.28;5070986;28;39744;-79
2022/04/06 01:11:53;;;;;;;3.33;3.00;;;;;;;11.08;75.74;97993.97;5048893;28;41018;-79
2022/04/06 01:14:21;;;;;;;3.47;3.17;;;;;;;11.12;75.40;98001.59;5049811;28;42957;-78
2022/04/06 01:16:59;;;;;;;3.20;2.50;;;;;;;11.15;75.51;97996.03;5049100;28;42751;-79
2022/04/06 01:19:34;;;;;;;3.53;2.90;;;;;;;11.15;75.11;98001.31;5046828;28;40934;-78
2022/04/06 01:22:02;;;;;;;5.83;3.77;;;;;;;11.18;75.06;97994.09;5068155;28;41868;-78
2022/04/06 01:24:31;;;;;;;4.03;3.50;;;;;;;11.15;75.40;98001.31;5053201;28;41884;-78
2022/04/06 01:27:01;;;;;;;3.20;2.90;;;;;;;11.06;75.41;97980.84;5103029;28;43224;-79
2022/04/06 01:29:29;;;;;;;4.00;3.17;;;;;;;11.16;75.51;97997.72;5069436;28;40002;-78
2022/04/06 01:31:56;;;;;;;3.87;3.47;;;;;;;11.13;75.47;97997.94;5069609;28;42647;-78
2022/04/06 01:34:24;;;;;;;3.47;3.17;;;;;;;11.11;75.47;97991.94;5069404;28;42763;-78
2022/04/06 01:36:51;;;;;;;3.80;3.10;;;;;;;11.02;75.24;97968.81;5052503;28;42328;-78
2022/04/06 01:39:19;;;;;;;3.57;2.93;;;;;;;11.16;75.06;97995.06;5052253;28;38932;-78
2022/04/06 01:41:48;;;;;;;4.13;3.63;;;;;;;11.08;75.17;97973.63;5052225;28;40652;-79
2022/04/06 01:44:15;;;;;;;4.87;3.53;;;;;;;11.09;74.79;97964.72;5052651;28;41554;-78
2022/04/06 01:46:43;;;;;;;4.17;3.40;;;;;;;11.10;74.89;97971.72;5052454;28;42832;-79
2022/04/06 01:54:46;;;;;;;3.63;2.97;;;;;;;11.22;74.88;97979.66;5036364;28;44530;-78
2022/04/06 01:57:16;;;;;;;3.57;3.27;;;;;;;11.22;74.97;97977.84;5051663;28;41369;-78
2022/04/06 01:59:44;;;;;;;4.17;3.47;;;;;;;11.22;74.85;97975.19;5069257;28;40439;-79
2022/04/06 02:02:14;;;;;;;4.37;3.47;;;;;;;11.23;74.62;97987.47;5052346;28;40907;-79
2022/04/06 02:04:42;;;;;;;3.70;3.20;;;;;;;11.24;74.80;97973.28;5069072;28;43678;-79
2022/04/06 02:07:10;;;;;;;4.57;3.27;;;;;;;11.14;74.36;97962.53;5068508;28;42989;-78
2022/04/06 02:09:38;;;;;;;4.23;3.00;;;;;;;11.26;74.40;97971.31;5052646;28;39134;-79
2022/04/06 02:12:07;;;;;;;3.50;3.20;;;;;;;11.29;74.29;97980.84;5068627;28;42759;-79
2022/04/06 02:14:36;;;;;;;6.43;3.70;;;;;;;11.30;74.15;97971.94;5069027;28;42744;-78
2022/04/06 02:17:06;;;;;;;3.47;2.83;;;;;;;11.32;74.38;97980.59;5068933;28;42887;-78
2022/04/06 02:19:35;;;;;;;4.50;3.60;;;;;;;11.31;74.41;97976.25;5052514;28;40320;-79
2022/04/06 02:22:04;;;;;;;4.60;3.17;;;;;;;11.33;74.40;97977.84;5073397;28;41785;-78
2022/04/06 02:24:32;;;;;;;4.57;3.20;;;;;;;11.33;74.58;97977.00;5055505;28;41604;-78
2022/04/06 02:26:59;;;;;;;5.93;3.17;;;;;;;11.29;74.61;97970.25;5054895;28;41296;-78
2022/04/06 02:29:27;;;;;;;3.53;3.20;;;;;;;11.24;75.24;97975.09;5072727;28;40639;-78
2022/04/06 02:31:55;;;;;;;4.70;3.83;;;;;;;11.17;75.79;97964.09;5072193;28;41561;-78
2022/04/06 02:34:23;;;;;;;4.50;3.70;;;;;;;11.07;75.89;97961.34;5055410;28;41692;-78
2022/04/06 02:36:50;;;;;;;4.00;3.47;;;;;;;11.05;76.70;97962.41;5055094;28;41057;-78
2022/04/06 02:39:18;;;;;;;4.97;3.77;;;;;;;11.01;76.65;97953.88;5073494;28;40036;-78
2022/04/06 02:41:45;;;;;;;5.30;3.70;;;;;;;11.03;76.34;97951.09;5071885;28;41585;-79
2022/04/06 02:44:13;;;;;;;4.17;3.33;;;;;;;11.03;76.57;97948.44;5072246;28;42445;-78
2022/04/06 02:46:40;;;;;;;3.93;3.40;;;;;;;11.02;76.55;97942.31;5055238;28;44067;-78
2022/04/06 02:49:09;;;;;;;4.67;3.53;;;;;;;11.01;76.31;97940.63;5055237;28;40050;-78
2022/04/06 02:51:37;;;;;;;4.87;3.80;;;;;;;11.02;76.59;97939.66;5071924;28;41915;-79
2022/04/06 02:54:05;;;;;;;5.10;3.90;;;;;;;11.04;76.32;97935.09;5071792;28;42527;-77
2022/04/06 02:56:32;;;;;;;4.37;3.73;;;;;;;11.05;76.37;97934.13;5072012;28;42274;-78
2022/04/06 02:59:01;;;;;;;4.80;4.20;;;;;;;10.89;76.66;97912.44;5071306;28;39193;-77
2022/04/06 03:01:29;;;;;;;4.73;3.97;;;;;;;11.00;76.78;97936.28;5071881;28;41798;-78
2022/04/06 03:03:56;;;;;;;5.27;4.03;;;;;;;11.02;76.68;97937.00;5072305;28;42654;-78
2022/04/06 03:06:25;;;;;;;5.50;4.17;;;;;;;11.06;76.34;97934.97;5071605;28;42183;-78
2022/04/06 03:08:53;;;;;;;4.23;3.70;;;;;;;11.10;76.08;97939.91;5072648;28;40941;-78
2022/04/06 03:11:22;;;;;;;5.10;4.37;;;;;;;11.10;76.31;97929.31;5072887;28;41739;-78
2022/04/06 03:13:51;;;;;;;6.23;4.50;;;;;;;11.09;76.17;97927.63;5070657;28;42909;-77
2022/04/06 03:16:19;;;;;;;4.57;4.10;;;;;;;11.11;76.14;97925.69;5054260;28;41429;-77
2022/04/06 03:18:46;;;;;;;5.13;4.27;;;;;;;11.14;75.70;97930.72;5070141;28;39080;-78
2022/04/06 03:21:14;;;;;;;4.67;3.77;;;;;;;11.13;75.84;97926.41;5071299;28;42292;-77
2022/04/06 03:23:42;;;;;;;5.00;4.13;;;;;;;11.15;75.76;97932.41;5070249;28;41794;-78
2022/04/06 03:26:11;;;;;;;4.23;3.83;;;;;;;11.16;75.72;97928.81;5053992;28;42297;-79
2022/04/06 03:28:39;;;;;;;5.57;4.70;;;;;;;11.15;76.05;97932.41;5070805;28;39240;-77
2022/04/06 03:31:07;;;;;;;6.33;4.40;;;;;;;11.11;76.15;97935.47;5071159;28;41709;-77
2022/04/06 03:33:35;;;;;;;6.23;4.23;;;;;;;11.02;77.17;97931.72;5053852;28;42826;-77
2022/04/06 03:36:03;;;;;;;6.77;4.83;;;;;;;10.91;78.62;97923.78;5070170;28;42254;-77
2022/04/06 03:38:31;;;;;;;6.33;5.30;;;;;;;10.82;79.44;97921.84;5072348;28;39767;-77
2022/04/06 03:41:00;;;;;;;6.17;5.10;;;;;;;10.79;79.53;97924.72;5053920;28;40600;-78
2022/04/06 03:43:28;;;;;;;6.37;4.90;;;;;;;10.65;79.61;97909.06;5050427;28;41651;-78
2022/04/06 03:45:55;;;;;;;6.23;5.07;;;;;;;10.76;79.67;97938.19;5050987;28;41511;-77
2022/04/06 03:48:23;;;;;;;6.57;4.80;;;;;;;10.65;79.80;97917.00;5067540;28;39946;-77
2022/04/06 03:50:51;;;;;;;5.13;4.40;;;;;;;10.60;80.07;97908.59;5050636;28;40881;-77
2022/04/06 03:53:19;;;;;;;4.70;4.20;;;;;;;10.68;80.61;97928.22;5033635;28;41654;-78
2022/04/06 03:55:47;;;;;;;5.07;3.93;;;;;;;10.63;79.98;97926.91;5070515;28;41998;-78
2022/04/06 03:58:16;;;;;;;6.07;4.57;;;;;;;10.60;79.83;97913.91;5070597;28;38756;-77
2022/04/06 04:00:44;;;;;;;5.70;4.37;;;;;;;10.56;79.96;97905.34;5070521;28;41221;-77
2022/04/06 04:03:11;;;;;;;5.43;4.63;;;;;;;10.66;79.85;97929.28;5053363;28;41951;-78
2022/04/06 04:05:39;;;;;;;5.57;4.33;;;;;;;10.58;79.97;97913.16;5053870;28;41140;-77
2022/04/06 04:08:07;;;;;;;5.03;4.10;;;;;;;10.62;80.19;97926.06;5104655;28;40542;-77
2022/04/06 04:10:34;;;;;;;4.50;3.77;;;;;;;10.56;79.40;97917.75;5054155;28;40955;-78
2022/04/06 04:13:02;;;;;;;5.60;4.20;;;;;;;10.66;79.36;97924.00;5069156;28;42912;-78
2022/04/06 04:15:31;;;;;;;4.70;4.03;;;;;;;10.67;79.41;97931.81;5070524;28;41020;-78
2022/04/06 04:17:59;;;;;;;4.70;4.07;;;;;;;10.68;79.20;97930.03;5053428;28;40070;-78
2022/04/06 04:20:27;;;;;;;4.37;3.93;;;;;;;10.68;79.30;97927.38;5071667;28;41912;-79
2022/04/06 04:22:55;;;;;;;5.30;4.43;;;;;;;10.67;79.40;97931.81;5069972;28;43742;-79
2022/04/06 04:25:22;;;;;;;5.00;4.20;;;;;;;10.61;79.99;97920.88;5070386;28;42569;-78
2022/04/06 04:27:50;;;;;;;5.37;3.80;;;;;;;10.48;79.54;97901.63;5070324;28;38804;-79
2022/04/06 04:30:17;;;;;;;5.83;4.33;;;;;;;10.63;79.56;97929.56;5053099;28;41828;-79
2022/04/06 04:32:46;;;;;;;7.80;4.67;;;;;;;10.63;79.30;97924.25;5069891;28;42743;-79
2022/04/06 04:35:13;;;;;;;6.50;4.67;;;;;;;10.65;79.28;97923.16;5070269;28;42317;-78
2022/04/06 04:37:41;;;;;;;4.40;3.87;;;;;;;10.65;79.03;97927.59;5072221;28;40984;-78
2022/04/06 04:40:10;;;;;;;5.63;4.23;;;;;;;10.65;79.32;97917.00;5053142;28;40760;-78
2022/04/06 04:42:37;;;;;;;6.37;4.60;;;;;;;10.65;79.11;97922.31;5069399;28;41823;-79
2022/04/06 04:45:07;;;;;;;4.53;4.07;;;;;;;10.66;79.01;97924.00;5070033;28;43180;-78
2022/04/06 04:47:34;;;;;;;5.90;4.43;;;;;;;10.65;79.14;97917.00;5069592;28;38786;-78
2022/04/06 04:50:03;;;;;;;5.27;4.37;;;;;;;10.64;79.43;97921.47;5052861;28;40781;-77
2022/04/06 04:52:31;;;;;;;5.00;3.83;;;;;;;10.62;78.91;97912.81;5069810;28;43340;-78
2022/04/06 04:54:59;;;;;;;5.40;4.40;;;;;;;10.69;78.90;97918.47;5069756;28;42666;-79
2022/04/06 04:57:26;;;;;;;5.73;4.23;;;;;;;10.68;78.94;97916.78;5069673;28;40980;-80
2022/04/06 04:59:54;;;;;;;5.83;4.03;;;;;;;10.70;79.09;97915.72;5070240;28;42510;-78
2022/04/06 05:02:22;;;;;;;6.47;4.73;;;;;;;10.71;78.67;97911.25;5069711;28;43798;-79
2022/04/06 05:04:49;;;;;;;5.83;4.60;;;;;;;10.73;78.70;97917.28;5071309;28;42303;-79
2022/04/06 05:07:18;;;;;;;4.87;4.37;;;;;;;10.73;79.08;97904.03;5065213;28;39899;-79
2022/04/06 05:09:45;;;;;;;5.50;4.13;;;;;;;10.70;78.65;97906.91;5054597;28;42426;-79
2022/04/06 05:12:13;;;;;;;6.50;5.17;;;;;;;10.64;78.89;97889.69;5051997;28;42564;-78
2022/04/06 05:14:41;;;;;;;6.17;4.13;;;;;;;10.78;78.79;97912.44;5069877;28;41221;-78
2022/04/06 05:17:09;;;;;;;4.60;4.00;;;;;;;10.79;78.39;97906.19;5069739;28;40168;-79
2022/04/06 05:19:36;;;;;;;3.80;3.40;;;;;;;10.79;78.71;97909.69;5053301;28;40640;-78
2022/04/06 05:22:04;;;;;;;5.53;4.63;;;;;;;10.84;78.38;97909.34;5069120;28;42432;-79
2022/04/06 05:24:33;;;;;;;4.00;3.60;;;;;;;10.74;78.33;97890.69;5069779;28;43206;-79
2022/04/06 05:27:02;;;;;;;4.30;3.27;;;;;;;10.92;78.01;97908.72;5069640;28;39833;-79
2022/04/06 05:29:29;;;;;;;5.00;3.93;;;;;;;10.94;77.98;97905.00;5069420;28;41707;-78
2022/04/06 05:31:57;;;;;;;3.97;3.60;;;;;;;10.93;77.97;97900.66;5069555;28;43784;-79
2022/04/06 05:34:24;;;;;;;5.67;3.50;;;;;;;10.66;77.70;97853.34;5051847;28;41167;-78
2022/04/06 05:36:52;;;;;;;4.90;4.00;;;;;;;10.94;77.55;97881.16;5068740;28;39261;-79
2022/04/06 05:39:20;;;;;;;5.37;3.87;;;;;;;11.05;77.72;97899.69;5068680;28;40595;-78
2022/04/06 05:41:49;;;;;;;4.27;3.87;;;;;;;10.95;77.20;97874.91;5068585;28;42802;-79
2022/04/06 05:44:18;;;;;;;4.57;4.00;;;;;;;11.12;77.10;97889.44;5068840;28;42434;-85
2022/04/06 05:46:45;;;;;;;5.53;4.27;;;;;;;11.03;77.00;97875.09;5059685;28;42085;-81
2022/04/06 05:49:13;;;;;;;5.20;4.17;;;;;;;11.09;77.22;97879.94;5069205;28;41766;-81
2022/04/06 05:51:41;;;;;;;4.70;4.20;;;;;;;11.09;76.92;97869.34;5048534;28;42963;-82
2022/04/06 05:54:08;;;;;;;5.53;4.37;;;;;;;11.24;76.67;97893.78;5048012;28;41970;-82
2022/04/06 05:56:36;;;;;;;5.07;3.90;;;;;;;11.15;76.81;97867.97;5072283;28;40020;-82
2022/04/06 05:59:05;;;;;;;4.17;3.77;;;;;;;11.25;76.54;97868.09;5055864;28;40427;-80
2022/04/06 06:01:32;;;;;;;5.50;4.40;;;;;;;11.40;76.10;97888.88;5043178;28;42207;-84
2022/04/06 06:04:00;;;;;;;5.63;4.00;;;;;;;11.51;75.93;97907.41;5072815;28;41311;-79
2022/04/06 06:06:28;;;;;;;5.40;3.97;;;;;;;11.53;75.25;97894.03;5055291;28;38896;-84
2022/04/06 06:08:55;;;;;;;5.13;4.63;;;;;;;11.50;75.15;97884.50;5055830;28;41136;-82
2022/04/06 06:11:23;;;;;;;4.30;3.57;;;;;;;11.52;74.88;97871.97;5046180;28;41947;-78
2022/04/06 06:13:50;;;;;;;4.40;3.53;;;;;;;11.74;74.57;97905.56;5055578;28;41259;-80
2022/04/06 06:16:19;;;;;;;3.80;3.17;;;;;;;11.80;74.35;97896.28;5049514;28;39987;-81
2022/04/06 06:18:47;;;;;;;4.20;3.80;;;;;;;11.87;74.01;97898.28;5055496;28;40087;-81
2022/04/06 06:21:15;;;;;;;4.00;3.60;;;;;;;11.93;73.30;97901.41;5059531;28;43552;-81
2022/04/06 06:23:42;;;;;;;4.13;3.73;;;;;;;11.88;73.28;97889.34;5072286;28;41266;-81
2022/04/06 06:26:09;;;;;;;4.10;3.67;;;;;;;11.97;73.04;97889.56;5040223;28;38838;-81
2022/04/06 06:28:37;;;;;;;3.80;3.33;;;;;;;12.14;72.78;97900.44;5035924;28;40655;-81
2022/04/06 06:31:05;;;;;;;5.63;4.37;;;;;;;12.22;72.50;97902.47;5056123;28;42558;-82
2022/04/06 06:33:34;;;;;;;4.50;3.43;;;;;;;12.28;71.93;97901.09;5036672;28;41539;-83
2022/04/06 06:36:01;;;;;;;4.60;3.67;;;;;;;12.01;71.81;97849.38;5051660;28;39262;-81
2022/04/06 06:38:28;;;;;;;4.53;3.60;;;;;;;12.47;70.53;97907.38;5052321;28;41892;-81
2022/04/06 06:40:56;;;;;;;4.13;3.70;;;;;;;12.49;70.57;97893.94;5043520;28;43250;-82
2022/04/06 06:43:24;;;;;;;5.07;3.87;;;;;;;12.52;70.38;97883.06;5055329;28;41134;-80
2022/04/06 06:45:52;;;;;;;4.43;3.70;;;;;;;12.68;69.42;97909.16;5054347;28;38676;-81
2022/04/06 06:48:20;;;;;;;6.50;4.13;;;;;;;12.79;69.29;97901.09;5088671;28;40576;-81
2022/04/06 06:50:50;;;;;;;5.00;3.73;;;;;;;12.89;68.86;97891.34;5044545;28;41944;-81
2022/04/06 06:53:17;;;;;;;5.37;3.40;;;;;;;13.01;68.18;97900.91;5035030;28;42078;-82
2022/04/06 06:55:45;;;;;;;4.60;3.60;;;;;;;13.08;67.98;97888.78;5063813;28;40894;-83
2022/04/06 06:58:12;;;;;;;3.50;3.20;;;;;;;13.24;67.35;97899.75;5071794;28;40933;-81
2022/04/06 07:00:40;;;;;;;3.73;3.33;;;;;;;13.26;66.94;97879.19;5044924;28;42948;-83
2022/04/06 07:03:07;;;;;;;3.53;3.00;;;;;;;13.53;66.15;97901.66;5068549;28;42712;-84
2022/04/06 07:05:35;;;;;;;4.37;3.87;;;;;;;13.69;66.18;97901.97;5051266;28;39084;-83
2022/04/06 07:08:04;;;;;;;3.70;3.40;;;;;;;13.78;65.51;97906.44;5069039;28;42075;-85
2022/04/06 07:10:32;;;;;;;3.80;3.50;;;;;;;13.82;65.25;97897.22;5051811;28;41719;-82
2022/04/06 07:13:00;;;;;;;3.83;3.30;;;;;;;13.89;64.76;97887.66;5069258;28;42575;-83
2022/04/06 07:15:28;;;;;;;3.43;3.10;;;;;;;14.16;63.90;97915.41;5053827;28;39109;-82
2022/04/06 07:17:57;;;;;;;3.80;3.30;;;;;;;14.26;63.14;97906.44;5071267;28;41801;-83
2022/04/06 07:20:26;;;;;;;3.63;3.30;;;;;;;14.37;62.35;97911.59;5071629;28;42561;-84
2022/04/06 07:22:54;;;;;;;4.10;3.47;;;;;;;14.50;61.62;97918.47;5071905;28;42639;-81
2022/04/06 07:25:23;;;;;;;5.13;3.00;;;;;;;14.58;61.24;97903.47;5045573;28;39260;-82
2022/04/06 07:27:51;;;;;;;4.23;2.77;;;;;;;14.67;61.01;97894.59;5051071;28;40614;-82
2022/04/06 07:30:18;;;;;;;4.33;3.37;;;;;;;14.37;60.40;97849.50;5040542;28;42112;-83
2022/04/06 07:32:45;;;;;;;5.40;2.97;;;;;;;14.74;59.44;97909.00;5054561;28;43622;-81
2022/04/06 07:35:13;;;;;;;3.63;3.00;;;;;;;14.77;59.77;97904.38;5063352;28;40036;-82
2022/04/06 07:37:43;;;;;;;3.47;3.17;;;;;;;14.86;59.77;97906.16;5034907;28;41702;-81
2022/04/06 07:40:12;;;;;;;3.20;2.87;;;;;;;14.88;59.70;97907.72;5073638;28;42636;-81
2022/04/06 07:42:42;;;;;;;3.30;2.43;;;;;;;14.92;59.30;97903.78;5070618;28;41973;-82
2022/04/06 07:45:13;;;;;;;5.23;2.80;;;;;;;14.87;58.83;97905.19;5070207;28;40165;-82
2022/04/06 07:47:42;;;;;;;3.70;2.70;;;;;;;14.75;59.37;97904.53;5071435;28;40996;-81
2022/04/06 07:50:10;;;;;;;3.57;3.27;;;;;;;14.62;58.52;97901.34;5068635;28;42807;-83
2022/04/06 07:52:38;;;;;;;3.93;3.13;;;;;;;14.41;59.72;97888.22;5054061;28;41142;-83
2022/04/06 07:55:07;;;;;;;3.87;2.80;;;;;;;14.45;59.94;97905.59;5070126;28;38994;-84
2022/04/06 07:57:35;;;;;;;4.07;2.93;;;;;;;14.45;60.08;97897.59;5070797;28;42059;-81
2022/04/06 08:00:07;;;;;;;5.37;2.97;;;;;;;14.40;59.53;97912.31;5069442;28;42952;-80
2022/04/06 08:02:35;;;;;;;3.57;2.87;;;;;;;14.16;60.40;97880.78;5049735;28;43185;-83
2022/04/06 08:05:04;;;;;;;2.80;2.60;;;;;;;14.24;60.52;97899.56;5055171;28;38818;-81
2022/04/06 08:07:32;;;;;;;4.47;3.10;;;;;;;14.32;59.96;97905.03;5050756;28;40970;-81
2022/04/06 08:09:59;;;;;;;4.07;3.33;;;;;;;14.27;59.73;97891.28;5054525;28;41745;-83
2022/04/06 08:12:27;;;;;;;3.83;2.93;;;;;;;14.23;60.27;97890.72;5069680;28;43190;-83
2022/04/06 08:14:54;;;;;;;3.20;2.83;;;;;;;14.34;60.04;97905.72;5069748;28;38802;-81
2022/04/06 08:17:25;;;;;;;5.27;3.07;;;;;;;14.19;60.62;97884.03;5069937;28;41498;-84
2022/04/06 08:19:53;;;;;;;5.30;3.30;;;;;;;14.19;60.58;97889.34;5063654;28;43397;-84
2022/04/06 08:22:20;;;;;;;2.80;2.60;;;;;;;14.40;60.07;97894.53;5047362;28;41026;-83
2022/04/06 08:24:48;;;;;;;4.80;3.80;;;;;;;15.00;59.26;97905.69;5069863;28;40852;-79
2022/04/06 08:27:15;;;;;;;3.70;3.10;;;;;;;15.80;56.86;97897.00;5053087;28;41043;-80
2022/04/06 08:29:44;;;;;;;3.30;3.00;;;;;;;16.36;54.31;97917.19;5052261;28;41922;-81
2022/04/06 08:32:11;;;;;;;3.13;2.83;;;;;;;16.63;53.55;97935.78;5087710;28;41257;-82
2022/04/06 08:34:40;;;;;;;3.40;3.10;;;;;;;16.66;53.78;97922.13;5067381;28;38799;-83
2022/04/06 08:37:09;;;;;;;3.10;2.80;;;;;;;16.39;54.12;97911.53;5066645;28;40868;-79
2022/04/06 08:39:36;;;;;;;4.57;2.70;;;;;;;15.99;54.66;97883.47;5032322;28;41799;-83
2022/04/06 08:42:04;;;;;;;3.23;2.50;;;;;;;15.55;55.13;97852.38;5050214;28;42074;-82
2022/04/06 08:44:32;;;;;;;3.50;3.03;;;;;;;15.48;55.73;97893.94;5052131;28;40106;-81
2022/04/06 08:47:04;;;;;;;2.80;2.57;;;;;;;15.11;56.07;97886.84;5053162;28;40573;-82
2022/04/06 08:49:32;;;;;;;4.30;2.77;;;;;;;14.99;56.22;97904.00;5052676;28;41684;-82
2022/04/06 08:52:03;;;;;;;4.70;3.20;;;;;;;14.95;56.58;97892.00;5070876;28;42262;-81
2022/04/06 08:54:31;;;;;;;4.20;2.97;;;;;;;15.05;56.02;97906.09;5051620;28;40203;-81
2022/04/06 08:56:58;;;;;;;4.80;3.10;;;;;;;14.87;56.16;97900.69;5049894;28;42452;-80
2022/04/06 08:59:26;;;;;;;3.47;2.83;;;;;;;14.65;56.50;97853.94;5032931;28;42111;-81
2022/04/06 09:01:53;;;;;;;2.87;2.67;;;;;;;15.29;56.22;97898.41;5049803;28;42802;-82
2022/04/06 09:04:23;;;;;;;3.47;3.00;;;;;;;15.33;55.81;97902.44;5033870;28;38713;-81
2022/04/06 09:06:51;;;;;;;4.63;3.33;;;;;;;15.25;56.22;97902.34;5069551;28;41800;-80
2022/04/06 09:09:33;;;;;;;4.07;2.70;;;;;;;15.24;56.16;97881.16;5070633;28;43717;-81
2022/04/06 09:12:06;;;;;;;4.57;3.20;;;;;;;15.31;56.17;97883.09;5050625;28;40683;-87
2022/04/06 09:14:34;;;;;;;3.90;2.90;;;;;;;15.41;55.81;97883.03;5033240;28;38601;-80
2022/04/06 09:17:04;;;;;;;3.63;2.93;;;;;;;15.68;55.19;97895.53;5049687;28;41926;-81
2022/04/06 09:19:31;;;;;;;3.03;2.73;;;;;;;15.70;55.06;97885.56;5032754;28;43135;-86
2022/04/06 09:21:59;;;;;;;4.13;2.93;;;;;;;15.81;54.69;97893.34;5032995;28;41453;-80
2022/04/06 09:24:28;;;;;;;3.43;3.00;;;;;;;15.96;54.58;97878.44;5049940;28;39597;-84
2022/04/06 09:26:57;;;;;;;2.90;2.70;;;;;;;16.50;53.18;97903.25;5069593;28;42631;-81
2022/04/06 09:29:25;;;;;;;4.27;2.80;;;;;;;16.81;52.13;97912.50;5070460;28;43562;-83
2022/04/06 09:31:53;;;;;;;3.30;2.93;;;;;;;17.08;51.72;97905.31;5073249;28;43693;-82
2022/04/06 09:34:23;;;;;;;2.93;2.20;;;;;;;17.37;51.08;97907.59;5073623;28;39851;-82
2022/04/06 09:36:56;;;;;;;3.47;2.83;;;;;;;17.69;51.14;97906.88;5056172;28;40718;-82
2022/04/06 09:39:43;;;;;;;3.07;2.50;;;;;;;17.92;48.73;97914.16;5070693;28;42934;-82
2022/04/06 09:42:20;;;;;;;3.43;2.63;;;;;;;18.19;49.38;97907.63;5050653;28;42558;-81
2022/04/06 09:47:44;;;;;;;3.47;3.10;;;;;;;18.77;45.51;97935.31;5056387;28;41963;-82
2022/04/06 09:50:15;;;;;;;3.13;2.60;;;;;;;18.64;45.16;97925.09;5055382;28;42897;-86
2022/04/06 09:52:47;;;;;;;3.57;2.97;;;;;;;18.92;43.42;97938.94;5056895;28;41528;-86
2022/04/06 09:55:18;;;;;;;3.13;2.53;;;;;;;18.98;43.36;97890.84;5052093;28;38876;-84
2022/04/06 09:57:49;;;;;;;3.67;2.60;;;;;;;19.31;41.86;97929.13;5074773;28;41353;-87
2022/04/06 10:00:19;;;;;;;3.10;2.43;;;;;;;19.80;40.96;97933.47;5048459;28;42403;-83
2022/04/06 10:02:49;;;;;;;2.67;2.47;;;;;;;19.88;41.04;97949.56;5069683;28;41229;-82
2022/04/06 10:05:20;;;;;;;2.93;2.47;;;;;;;20.09;40.68;97918.34;5059463;28;40933;-83
2022/04/06 10:07:51;;;;;;;2.60;2.40;;;;;;;19.95;41.15;97910.19;5072925;28;41863;-82
2022/04/06 10:10:23;;;;;;;3.00;2.60;;;;;;;19.78;40.97;97930.13;5072464;28;41865;-81
2022/04/06 10:12:51;;;;;;;3.47;2.60;;;;;;;19.60;41.40;97917.78;5055503;28;41604;-87
2022/04/06 10:15:19;;;;;;;3.73;3.33;;;;;;;19.25;42.12;97912.88;5046317;28;40477;-81
2022/04/06 10:17:47;;;;;;;3.17;2.13;;;;;;;19.07;42.19;97909.56;5035714;28;43428;-81
2022/04/06 10:20:24;;;;;;;4.43;2.73;;;;;;;18.84;42.41;97893.38;5086700;28;42479;-80
2022/04/06 10:23:03;;;;;;;2.77;2.30;;;;;;;18.90;42.17;97892.72;5054536;28;42219;-79
2022/04/06 10:25:49;;;;;;;4.87;2.50;;;;;;;19.24;41.02;97895.09;5071145;28;38897;-81
2022/04/06 10:28:18;;;;;;;4.23;2.50;;;;;;;19.63;40.16;97890.59;5051466;28;40515;-84
2022/04/06 10:31:16;;;;;;;2.77;2.10;;;;;;;19.90;39.17;97908.06;5052192;28;41516;-84
2022/04/06 10:33:45;;;;;;;2.70;1.97;;;;;;;20.11;38.40;97915.47;5036086;28;42351;-83
2022/04/06 10:36:21;;;;;;;3.30;2.10;;;;;;;19.90;38.64;97909.91;5035283;28;40332;-83
2022/04/06 10:39:11;;;;;;;3.13;2.10;;;;;;;19.87;37.23;97918.31;5052273;28;42403;-83
2022/04/06 10:42:01;;;;;;;2.30;2.10;;;;;;;19.82;37.38;97920.69;5081012;28;42744;-84
2022/04/06 10:44:38;;;;;;;4.10;2.20;;;;;;;20.19;37.16;97899.28;5049431;28;42296;-82
2022/04/06 10:47:08;;;;;;;2.13;1.93;;;;;;;23.22;33.10;97924.59;5068895;28;40030;-84
2022/04/06 10:49:36;;;;;;;3.20;2.23;;;;;;;25.33;30.21;97908.00;5036548;28;41374;-84
2022/04/06 10:52:25;;;;;;;3.47;1.67;;;;;;;24.47;30.39;97929.69;5106251;28;42486;-83
2022/04/06 10:54:53;;;;;;;2.20;2.00;;;;;;;23.45;31.70;97920.78;5050988;28;41894;-80
2022/04/06 10:57:23;;;;;;;4.23;1.70;;;;;;;22.65;32.76;97918.53;5068591;28;40107;-83
2022/04/06 11:00:13;;;;;;;4.00;1.70;;;;;;;22.08;33.63;97901.41;5054429;28;41805;-83
2022/04/06 11:02:48;;;;;;;1.60;1.50;;;;;;;21.52;34.12;97876.06;5052729;28;41531;-83
2022/04/06 11:05:44;;;;;;;2.07;1.87;;;;;;;21.15;35.45;97880.53;5063717;28;41132;-80
2022/04/06 11:11:40;;;;;;;2.50;1.43;;;;;;;21.42;36.25;97872.84;5049629;28;40779;-80
2022/04/06 11:14:09;;;;;;;3.43;1.60;;;;;;;21.14;36.64;97808.84;5071696;28;43408;-82
2022/04/06 11:16:44;;;;;;;1.70;1.60;;;;;;;21.62;35.73;97867.72;5036361;28;41132;-84
2022/04/06 11:19:13;;;;;;;2.00;1.80;;;;;;;21.81;35.91;97850.91;5083896;28;39295;-81
2022/04/06 11:21:51;;;;;;;3.33;1.93;;;;;;;22.05;35.39;97869.44;5080246;28;42199;-84
2022/04/06 11:24:21;;;;;;;2.53;1.73;;;;;;;21.71;34.94;97875.47;5068651;28;42803;-80
2022/04/06 11:26:49;;;;;;;1.90;1.70;;;;;;;21.26;35.56;97856.91;5071596;28;43116;-85
2022/04/06 11:29:19;;;;;;;2.33;1.70;;;;;;;21.15;35.87;97860.84;5071757;28;38541;-80
2022/04/06 11:31:54;;;;;;;2.03;1.83;;;;;;;21.05;36.29;97850.38;5063776;28;41769;-86
2022/04/06 11:34:33;;;;;;;1.60;1.50;;;;;;;20.99;35.63;97853.81;5088572;28;42865;-81
2022/04/06 11:37:01;;;;;;;1.93;1.73;;;;;;;21.16;35.64;97857.97;5104424;28;42207;-84
2022/04/06 11:39:29;;;;;;;3.13;2.03;;;;;;;21.86;35.80;97840.41;5053324;28;38943;-84
2022/04/06 11:41:57;;;;;;;4.27;2.00;;;;;;;23.63;32.16;97838.13;5065210;28;40861;-87
2022/04/06 11:44:28;;;;;;;2.77;1.67;;;;;;;24.29;31.43;97869.91;5053862;28;41834;-85
2022/04/06 11:46:56;;;;;;;2.07;1.60;;;;;;;25.86;29.53;97873.38;5053137;28;41072;-87
2022/04/06 11:49:26;;;;;;;2.53;2.17;;;;;;;26.60;27.66;97886.25;5058284;28;40404;-85
2022/04/06 11:51:55;;;;;;;1.90;1.80;;;;;;;26.20;28.00;97863.16;5034925;28;42252;-85
2022/04/06 11:54:23;;;;;;;2.93;1.67;;;;;;;24.96;29.38;97867.00;5034541;28;41728;-81
2022/04/06 11:56:52;;;;;;;2.20;1.63;;;;;;;23.77;31.25;97840.88;5070782;28;42843;-82